Aérodrome :
LOGIN :

S'inscrire | Disclaimer

   EN    FR    IT 

 










Légende :    VFR   VFR Marginal   IFR   IFR Intensif   IFR Très Intensif
Visi : 
Plafond : 
>= 8 km
>= 3000ft
5 à 8 km
1000 à 3000 ft
1500m à 5 km
500 à 1000 ft
800 à 1500m
200 à 500 ft
< 800m
< 200 ft
Symboles :   Orages  Brouillard  Fortes neiges  Fortes précipitations  Vent > 20 kt
SIGMETs :   Divers  Orages  Givrage  Turbulence  Onde Orograph.  Cendres Volcan.







- Altitude de l'aérodrome : 584 ft
- Voir les cartes d'approche


LFPV - Villacoublay Vélizy

DERNIER METAR :
  • 161730Z AUTO 07006KT 0350 R27/0375N R09/0375N FG VV/// 06/06 Q1024 BECMG 1000 BR OVC003

METARs EXPIRÉS :
  • 161700Z AUTO 08007KT 0350 0300 R27/0350N R09/0350N FG VV/// 06/06 Q1024 BECMG 1000 BR OVC003
  • 161630Z AUTO 06008KT 0450 0350 R27/0450N R09/0550U FG VV/// 06/06 Q1024 BECMG 1000 BR OVC003
  • 161600Z AUTO 08007KT 0300 R27/0325N R09/0375N FG VV/// 06/06 Q1024 BECMG 1000 BR OVC003
  • 161530Z AUTO 06006KT 0300 0250 R27/0300N R09/0375N FG VV/// 06/06 Q1024 BECMG 6000 NSW BKN010
  • 161500Z AUTO 07007KT 0300 0250 R27/0275N R09/0250D FG VV/// 06/06 Q1024 BECMG 1000 BR OVC003

TAF AMD TAF LFPV
Valide du 16 à 15h jusqu'au 17 à 15h UTC


161543Z 1615/1715 09005KT 0350 FG OVC000
BECMG 1617/1620 1000 BR OVC003
BECMG 1620/1622 6000 NSW BKN010
BECMG 1622/1624 CAVOK
Pas de NOTAMs connus pour ce terrain.



MET'MAP, la Météo Aéronautique d'un coup d'oeil ! - Copyright ORBIFLY Décembre 2007 - Disclaimer

ORBIFLY MET'MAP TEAM :

Programmation & Développement : Alexandra Zaïnal
Conception & Développement : Baudouin d'Aumeries
Co-Programmation & Développement : Marc-Olivier Méhu
Soutien technique & logistique : Manuel Goepfert

Contact : metmap@orbifly.com




SOURCES & CREDITS :

   NOAA